createdAt,value
2018-07-26T00:03:17.369Z,8.37
2018-07-26T00:08:20.620Z,10.80
2018-07-26T00:13:23.953Z,9.90
2018-07-26T00:18:27.226Z,10.07
2018-07-26T00:23:30.488Z,7.33
2018-07-26T00:28:33.743Z,7.73
2018-07-26T00:33:38.493Z,8.33
2018-07-26T00:38:41.767Z,8.00
2018-07-26T00:43:45.019Z,7.73
2018-07-26T00:48:48.301Z,10.17
2018-07-26T00:53:51.534Z,8.73
2018-07-26T00:58:54.801Z,9.73
2018-07-26T01:03:58.114Z,8.30
2018-07-26T01:09:01.372Z,8.60
2018-07-26T01:14:05.015Z,7.87
2018-07-26T01:19:08.270Z,8.97
2018-07-26T01:24:11.535Z,9.37
2018-07-26T01:29:14.808Z,10.20
2018-07-26T01:34:18.072Z,9.70
2018-07-26T01:39:21.337Z,10.77
2018-07-26T01:44:25.516Z,7.77
2018-07-26T01:49:28.782Z,6.57
2018-07-26T01:54:32.043Z,8.73
2018-07-26T01:59:35.305Z,7.23
2018-07-26T02:04:38.571Z,8.20
2018-07-26T02:09:41.835Z,7.47
2018-07-26T02:14:45.130Z,7.47
2018-07-26T02:19:48.407Z,8.40
2018-07-26T02:24:51.660Z,6.97
2018-07-26T02:29:54.911Z,7.10
2018-07-26T02:34:58.162Z,7.60
2018-07-26T02:40:01.429Z,7.60
2018-07-26T02:45:04.451Z,8.97
2018-07-26T02:50:07.430Z,9.83
2018-07-26T02:55:10.692Z,7.23
2018-07-26T03:00:13.964Z,6.87
2018-07-26T03:05:17.735Z,7.33
2018-07-26T03:10:20.988Z,9.20
2018-07-26T03:15:24.248Z,7.30
2018-07-26T03:20:27.551Z,7.37
2018-07-26T03:25:30.821Z,7.70
2018-07-26T03:30:34.063Z,7.87
2018-07-26T03:35:37.327Z,7.33
2018-07-26T03:40:40.575Z,7.17
2018-07-26T03:45:43.847Z,7.80
2018-07-26T03:50:47.103Z,7.17
2018-07-26T03:55:50.391Z,7.20
2018-07-26T04:00:53.634Z,8.43
2018-07-26T04:05:56.882Z,8.23
2018-07-26T04:10:59.898Z,7.83
2018-07-26T04:16:03.188Z,7.17
2018-07-26T04:21:06.514Z,9.13
2018-07-26T04:26:09.833Z,7.70
2018-07-26T04:31:13.095Z,8.40
2018-07-26T04:36:16.389Z,7.20
2018-07-26T04:41:19.658Z,9.10
2018-07-26T04:46:22.678Z,9.53
2018-07-26T04:51:25.972Z,7.70
2018-07-26T04:56:29.253Z,8.43
2018-07-26T05:01:32.552Z,8.63
2018-07-26T05:06:35.842Z,6.90
2018-07-26T05:11:39.145Z,7.50
2018-07-26T05:16:42.146Z,8.80
2018-07-26T05:21:45.527Z,6.70
2018-07-26T05:26:48.783Z,7.90
2018-07-26T05:31:52.239Z,8.17
2018-07-26T05:36:55.620Z,6.23
2018-07-26T05:41:58.922Z,6.00
2018-07-26T05:47:02.182Z,7.17
2018-07-26T05:52:05.459Z,5.50
2018-07-26T05:57:08.740Z,6.13
2018-07-26T06:02:12.464Z,5.87
2018-07-26T06:07:15.714Z,5.40
2018-07-26T06:12:18.976Z,5.77
2018-07-26T06:17:22.259Z,6.10
2018-07-26T06:22:25.538Z,7.80
2018-07-26T06:27:28.812Z,7.13
2018-07-26T06:32:32.090Z,5.40
2018-07-26T06:37:35.349Z,5.23
2018-07-26T06:42:38.609Z,4.30
2018-07-26T06:47:41.593Z,4.37
2018-07-26T06:52:44.884Z,5.33
2018-07-26T06:57:48.139Z,7.08
2018-07-26T07:02:51.140Z,5.03
2018-07-26T07:07:54.167Z,3.90
2018-07-26T07:12:57.444Z,7.33
2018-07-26T07:18:00.727Z,5.87
2018-07-26T07:23:04.294Z,5.85
2018-07-26T07:28:08.155Z,5.83
2018-07-26T07:33:11.850Z,6.28
2018-07-26T07:38:16.287Z,4.70
2018-07-26T07:43:19.564Z,5.60
2018-07-26T07:48:22.843Z,7.03
2018-07-26T07:53:26.112Z,4.78
2018-07-26T07:58:29.410Z,5.47
2018-07-26T08:03:32.425Z,4.75
2018-07-26T08:08:35.697Z,5.25
2018-07-26T08:13:39.354Z,5.47
2018-07-26T08:18:43.022Z,4.78
2018-07-26T08:23:46.639Z,5.53
2018-07-26T08:28:49.983Z,4.62
2018-07-26T08:33:53.596Z,3.17
2018-07-26T08:38:57.832Z,4.05
2018-07-26T08:44:01.193Z,4.17
2018-07-26T08:49:04.630Z,5.83
2018-07-26T08:54:08.268Z,3.42
2018-07-26T08:59:11.744Z,3.30
2018-07-26T09:04:15.500Z,2.77
2018-07-26T09:09:19.459Z,3.58
2018-07-26T09:14:23.076Z,3.20
2018-07-26T09:19:26.463Z,3.02
2018-07-26T09:24:30.691Z,4.45
2018-07-26T09:29:34.840Z,4.15
2018-07-26T09:34:38.538Z,4.53
2018-07-26T09:39:42.159Z,3.62
2018-07-26T09:44:45.461Z,4.03
2018-07-26T09:49:48.875Z,3.85
2018-07-26T09:54:52.160Z,5.33
2018-07-26T09:59:55.417Z,3.08
2018-07-26T10:04:58.692Z,3.90
2018-07-26T10:10:03.640Z,3.83
2018-07-26T10:15:07.136Z,3.92
2018-07-26T10:20:10.565Z,3.20
2018-07-26T10:25:13.812Z,4.47
2018-07-26T10:30:17.081Z,3.70
2018-07-26T10:35:20.370Z,3.33
2018-07-26T10:40:23.621Z,4.92
2018-07-26T10:45:26.868Z,3.90
2018-07-26T10:50:30.129Z,3.67
2018-07-26T10:55:33.411Z,3.58
2018-07-26T11:00:36.690Z,3.95
2018-07-26T11:05:39.984Z,4.20
2018-07-26T11:10:43.336Z,3.30
2018-07-26T11:15:46.329Z,5.58
2018-07-26T11:20:49.606Z,3.62
2018-07-26T11:25:52.850Z,8.03
2018-07-26T11:30:56.107Z,3.92
2018-07-26T11:36:00.487Z,4.65
2018-07-26T11:41:04.666Z,4.08
2018-07-26T11:46:08.232Z,3.22
2018-07-26T11:51:11.657Z,3.35
2018-07-26T11:56:14.931Z,4.90
2018-07-26T12:01:18.288Z,4.62
2018-07-26T12:06:21.582Z,5.10
2018-07-26T12:11:24.858Z,6.70
2018-07-26T12:16:28.139Z,3.45
2018-07-26T12:21:31.460Z,3.50
2018-07-26T12:26:34.742Z,3.17
2018-07-26T12:31:37.994Z,3.83
2018-07-26T12:36:41.266Z,3.17
2018-07-26T12:41:44.551Z,2.90
2018-07-26T12:46:47.840Z,3.50
2018-07-26T12:51:51.127Z,4.45
2018-07-26T12:56:54.416Z,4.37
2018-07-26T13:01:57.426Z,3.70
2018-07-26T13:07:00.686Z,4.83
2018-07-26T13:12:03.936Z,3.58
2018-07-26T13:17:06.931Z,3.83
2018-07-26T13:22:10.224Z,3.80
2018-07-26T13:27:13.512Z,3.45
2018-07-26T13:32:16.760Z,4.67
2018-07-26T13:37:20.019Z,3.80
2018-07-26T13:42:23.299Z,4.28
2018-07-26T13:47:26.547Z,6.85
2018-07-26T13:52:30.673Z,3.72
2018-07-26T13:57:33.901Z,4.85
2018-07-26T14:02:37.169Z,4.42
2018-07-26T14:07:40.431Z,7.62
2018-07-26T14:12:43.711Z,4.33
2018-07-26T14:17:47.029Z,5.03
2018-07-26T14:22:50.308Z,5.37
2018-07-26T14:27:53.568Z,6.10
2018-07-26T14:32:56.823Z,4.08
2018-07-26T14:38:00.112Z,3.70
2018-07-26T14:43:03.556Z,3.80
2018-07-26T14:48:06.986Z,5.42
2018-07-26T14:53:10.281Z,4.37
2018-07-26T14:58:13.511Z,3.90
2018-07-26T15:03:16.795Z,3.95
2018-07-26T15:08:20.051Z,3.00
2018-07-26T15:13:23.351Z,3.20
2018-07-26T15:18:26.630Z,6.92
2018-07-26T15:23:29.896Z,5.28
2018-07-26T15:28:33.194Z,5.28
2018-07-26T15:33:36.532Z,4.22
2018-07-26T15:38:39.799Z,4.58
2018-07-26T15:43:43.168Z,4.58
2018-07-26T15:48:46.738Z,5.55
2018-07-26T15:53:50.023Z,4.35
2018-07-26T15:58:53.351Z,8.35
2018-07-26T16:03:56.807Z,5.28
2018-07-26T16:09:00.071Z,4.10
2018-07-26T16:14:03.466Z,3.92
2018-07-26T16:19:06.462Z,4.28
2018-07-26T16:24:09.738Z,5.05
2018-07-26T16:29:12.993Z,4.05
2018-07-26T16:34:16.296Z,4.05
2018-07-26T16:39:19.618Z,4.28
2018-07-26T16:44:23.719Z,3.77
2018-07-26T16:49:27.657Z,4.60
2018-07-26T16:54:30.987Z,5.35
2018-07-26T16:59:34.239Z,6.78
2018-07-26T17:04:37.511Z,4.62
2018-07-26T17:09:40.856Z,4.83
2018-07-26T17:14:44.154Z,8.03
2018-07-26T17:19:47.441Z,7.00
2018-07-26T17:24:50.724Z,4.60
2018-07-26T17:29:53.764Z,5.10
2018-07-26T17:34:57.133Z,3.85
2018-07-26T17:40:00.472Z,4.05
2018-07-26T17:45:04.700Z,4.80
2018-07-26T17:50:08.893Z,4.65
2018-07-26T17:55:12.191Z,4.42
2018-07-26T18:00:15.480Z,4.17
2018-07-26T18:05:18.762Z,4.42
2018-07-26T18:10:21.824Z,4.65
2018-07-26T18:15:25.259Z,4.33
2018-07-26T18:20:30.412Z,6.15
2018-07-26T18:25:35.570Z,7.28
2018-07-26T18:30:39.855Z,5.17
2018-07-26T18:35:45.300Z,8.20
2018-07-26T18:40:51.739Z,4.85
2018-07-26T18:45:56.862Z,5.47
2018-07-26T18:51:00.296Z,5.10
2018-07-26T18:56:05.349Z,4.90
2018-07-26T19:01:08.771Z,4.93
2018-07-26T19:06:12.041Z,5.17
2018-07-26T19:11:15.319Z,9.13
2018-07-26T19:16:20.633Z,6.80
2018-07-26T19:21:25.786Z,6.33
2018-07-26T19:26:28.878Z,6.50
2018-07-26T19:31:33.026Z,7.50
2018-07-26T19:36:37.401Z,8.93
2018-07-26T19:41:43.328Z,10.27
2018-07-26T19:46:47.144Z,7.80
2018-07-26T19:51:50.431Z,6.50
2018-07-26T19:56:53.702Z,8.97
2018-07-26T20:01:58.281Z,8.97
2018-07-26T20:07:02.353Z,7.40
2018-07-26T20:12:05.970Z,6.73
2018-07-26T20:17:10.376Z,5.60
2018-07-26T20:22:13.463Z,6.73
2018-07-26T20:27:16.526Z,6.33
2018-07-26T20:32:19.515Z,7.50
2018-07-26T20:37:22.850Z,5.60
2018-07-26T20:42:26.135Z,5.10
2018-07-26T20:47:29.129Z,5.23
2018-07-26T20:52:32.868Z,5.37
2018-07-26T20:57:36.808Z,9.20
2018-07-26T21:02:40.206Z,8.17
2018-07-26T21:07:43.575Z,4.93
2018-07-26T21:12:46.573Z,6.40
2018-07-26T21:17:50.344Z,7.57
2018-07-26T21:22:53.630Z,4.97
2018-07-26T21:27:56.890Z,5.13
2018-07-26T21:33:00.713Z,4.83
2018-07-26T21:38:04.009Z,5.13
2018-07-26T21:43:07.016Z,4.87
2018-07-26T21:48:10.351Z,5.63
2018-07-26T21:53:13.339Z,5.40
2018-07-26T21:58:16.639Z,5.33
2018-07-26T22:03:20.107Z,4.03
2018-07-26T22:08:23.127Z,5.63
2018-07-26T22:13:26.419Z,5.23
2018-07-26T22:18:29.444Z,4.43
2018-07-26T22:23:32.729Z,4.97
2018-07-26T22:28:36.284Z,4.47
2018-07-26T22:33:39.966Z,4.57
2018-07-26T22:38:43.324Z,4.63
2018-07-26T22:43:47.039Z,9.20
2018-07-26T22:48:50.442Z,4.83
2018-07-26T22:53:54.470Z,5.03
2018-07-26T22:58:57.720Z,4.60
2018-07-26T23:04:00.740Z,4.40
2018-07-26T23:09:05.441Z,4.87
2018-07-26T23:14:08.665Z,4.97
2018-07-26T23:19:11.706Z,5.10
2018-07-26T23:24:17.053Z,5.30
2018-07-26T23:29:20.799Z,6.60
2018-07-26T23:34:24.436Z,8.90
2018-07-26T23:39:27.765Z,6.13
2018-07-26T23:44:31.160Z,5.10
2018-07-26T23:49:35.339Z,6.30
2018-07-26T23:54:39.102Z,5.17
2018-07-26T23:59:42.263Z,4.93
